createdAt,value
2023-12-13T00:17:04.857Z,19.40
2023-12-13T00:20:10.293Z,13.88
2023-12-13T00:21:42.544Z,13.95
2023-12-13T00:23:14.875Z,17.45
2023-12-13T00:24:47.203Z,25.73
2023-12-13T00:26:20.414Z,21.83
2023-12-13T00:27:53.324Z,30.48
2023-12-13T00:29:25.610Z,28.38
2023-12-13T00:30:57.899Z,36.97
2023-12-13T00:34:02.935Z,26.15
2023-12-13T00:35:35.301Z,18.05
2023-12-13T00:37:07.626Z,13.57
2023-12-13T00:38:39.952Z,15.00
2023-12-13T00:40:12.835Z,17.42
2023-12-13T00:41:45.133Z,13.80
2023-12-13T00:43:17.375Z,23.02
2023-12-13T00:44:49.704Z,16.15
2023-12-13T00:46:24.384Z,11.88
2023-12-13T00:47:56.732Z,15.10
2023-12-13T00:49:29.321Z,16.10
2023-12-13T00:51:01.592Z,14.60
2023-12-13T00:52:33.969Z,15.93
2023-12-13T00:54:06.428Z,15.45
2023-12-13T00:55:38.744Z,13.48
2023-12-13T00:57:11.094Z,14.80
2023-12-13T00:58:47.304Z,14.57
2023-12-13T01:00:19.828Z,18.20
2023-12-13T01:01:52.161Z,15.02
2023-12-13T01:03:26.720Z,16.50
2023-12-13T01:04:59.060Z,13.07
2023-12-13T01:06:31.341Z,15.15
2023-12-13T01:08:04.417Z,13.98
2023-12-13T01:09:36.695Z,12.40
2023-12-13T01:11:10.307Z,14.38
2023-12-13T01:14:17.749Z,13.95
2023-12-13T01:15:52.927Z,13.98
2023-12-13T01:17:25.206Z,22.58
2023-12-13T01:18:57.439Z,16.52
2023-12-13T01:20:29.801Z,18.13
2023-12-13T01:22:02.104Z,16.48
2023-12-13T01:23:34.347Z,15.10
2023-12-13T01:25:08.129Z,14.52
2023-12-13T01:26:40.379Z,15.98
2023-12-13T01:28:12.838Z,13.98
2023-12-13T01:29:45.230Z,13.30
2023-12-13T01:31:18.226Z,11.77
2023-12-13T01:32:50.711Z,16.77
2023-12-13T01:34:23.098Z,14.57
2023-12-13T01:35:55.502Z,13.93
2023-12-13T01:37:29.184Z,11.93
2023-12-13T01:39:01.426Z,14.45
2023-12-13T01:40:33.740Z,13.10
2023-12-13T01:42:06.848Z,11.98
2023-12-13T01:43:39.226Z,14.70
2023-12-13T01:45:13.715Z,14.13
2023-12-13T01:46:47.526Z,13.15
2023-12-13T01:48:19.975Z,13.95
2023-12-13T01:49:52.374Z,16.20
2023-12-13T01:51:24.709Z,13.93
2023-12-13T01:52:57.061Z,14.30
2023-12-13T01:54:29.382Z,14.45
2023-12-13T01:56:01.837Z,17.73
2023-12-13T01:57:34.730Z,14.50
2023-12-13T01:59:07.105Z,18.88
2023-12-13T02:00:41.767Z,14.95
2023-12-13T02:02:14.086Z,15.75
2023-12-13T02:03:47.885Z,16.65
2023-12-13T02:05:21.021Z,14.75
2023-12-13T02:06:53.945Z,13.38
2023-12-13T02:08:26.206Z,13.82
2023-12-13T02:09:58.506Z,17.05
2023-12-13T02:11:31.105Z,13.68
2023-12-13T02:13:03.763Z,13.43
2023-12-13T02:14:36.063Z,14.03
2023-12-13T02:16:08.704Z,13.50
2023-12-13T02:17:54.073Z,14.15
2023-12-13T02:19:26.366Z,13.38
2023-12-13T02:20:58.671Z,13.85
2023-12-13T02:22:31.737Z,14.40
2023-12-13T02:24:05.598Z,13.38
2023-12-13T02:25:41.698Z,12.10
2023-12-13T02:27:14.190Z,12.95
2023-12-13T02:28:46.604Z,9.82
2023-12-13T02:30:19.000Z,11.90
2023-12-13T02:31:51.374Z,15.93
2023-12-13T02:33:31.271Z,20.75
2023-12-13T02:35:03.819Z,18.08
2023-12-13T02:36:36.119Z,16.02
2023-12-13T02:38:08.367Z,12.85
2023-12-13T02:39:40.655Z,13.60
2023-12-13T02:41:12.917Z,13.93
2023-12-13T02:42:45.533Z,14.60
2023-12-13T02:44:17.817Z,13.30
2023-12-13T02:45:50.171Z,20.52
2023-12-13T02:47:26.838Z,25.08
2023-12-13T02:49:00.073Z,12.45
2023-12-13T02:50:32.927Z,12.77
2023-12-13T02:52:06.612Z,13.90
2023-12-13T02:53:38.878Z,16.85
2023-12-13T02:55:11.525Z,17.15
2023-12-13T02:56:43.857Z,14.38
2023-12-13T02:58:16.362Z,16.75
2023-12-13T02:59:48.609Z,14.88
2023-12-13T03:01:21.001Z,16.20
2023-12-13T03:02:57.381Z,12.93
2023-12-13T03:04:29.741Z,14.60
2023-12-13T03:06:02.085Z,11.07
2023-12-13T03:07:34.619Z,12.90
2023-12-13T03:09:07.354Z,10.53
2023-12-13T03:10:39.709Z,10.15
2023-12-13T03:12:12.189Z,13.57
2023-12-13T03:13:44.569Z,15.13
2023-12-13T03:15:17.272Z,17.58
2023-12-13T03:16:49.687Z,21.02
2023-12-13T03:18:22.120Z,12.65
2023-12-13T03:19:57.495Z,16.27
2023-12-13T03:21:29.716Z,15.07
2023-12-13T03:23:04.827Z,16.08
2023-12-13T03:24:37.434Z,21.02
2023-12-13T03:26:09.900Z,18.65
2023-12-13T03:27:44.524Z,15.00
2023-12-13T03:29:16.811Z,13.15
2023-12-13T03:30:49.141Z,13.00
2023-12-13T03:32:21.482Z,21.63
2023-12-13T03:33:53.988Z,16.63
2023-12-13T03:35:26.265Z,24.02
2023-12-13T03:36:58.531Z,23.67
2023-12-13T03:38:30.869Z,30.58
2023-12-13T03:40:04.604Z,31.55
2023-12-13T03:41:36.836Z,40.47
2023-12-13T03:43:09.115Z,41.25
2023-12-13T03:44:41.470Z,49.40
2023-12-13T03:46:14.065Z,38.28
2023-12-13T03:47:46.618Z,29.13
2023-12-13T03:49:19.412Z,26.57
2023-12-13T03:50:51.721Z,22.33
2023-12-13T03:52:23.975Z,31.23
2023-12-13T03:53:56.227Z,29.33
2023-12-13T03:55:28.498Z,24.33
2023-12-13T03:57:00.965Z,21.55
2023-12-13T03:58:33.210Z,19.77
2023-12-13T04:00:08.404Z,21.15
2023-12-13T04:01:40.784Z,23.30
2023-12-13T04:03:13.150Z,24.13
2023-12-13T04:04:45.576Z,35.05
2023-12-13T04:06:17.927Z,35.22
2023-12-13T04:07:50.213Z,24.13
2023-12-13T04:09:23.281Z,18.83
2023-12-13T04:10:55.514Z,25.70
2023-12-13T04:12:27.777Z,20.10
2023-12-13T04:13:59.993Z,20.42
2023-12-13T04:15:32.639Z,35.75
2023-12-13T04:17:05.888Z,23.87
2023-12-13T04:18:39.321Z,20.50
2023-12-13T04:21:44.041Z,24.90
2023-12-13T04:23:16.332Z,22.65
2023-12-13T04:24:48.613Z,21.52
2023-12-13T04:26:20.860Z,21.02
2023-12-13T04:27:53.215Z,27.40
2023-12-13T04:29:25.431Z,26.65
2023-12-13T04:30:57.785Z,28.98
2023-12-13T04:32:30.213Z,20.90
2023-12-13T04:34:02.650Z,21.02
2023-12-13T04:35:35.656Z,26.92
2023-12-13T04:37:08.496Z,20.40
2023-12-13T04:38:40.794Z,22.55
2023-12-13T04:40:13.341Z,22.17
2023-12-13T04:41:45.897Z,27.75
2023-12-13T04:43:18.175Z,20.73
2023-12-13T04:44:51.178Z,19.17
2023-12-13T04:46:23.533Z,19.40
2023-12-13T04:47:56.595Z,23.13
2023-12-13T04:49:29.092Z,38.17
2023-12-13T04:51:01.502Z,42.22
2023-12-13T04:52:33.942Z,40.03
2023-12-13T04:54:06.612Z,31.02
2023-12-13T04:55:39.387Z,32.10
2023-12-13T04:57:11.693Z,21.60
2023-12-13T04:58:44.088Z,23.55
2023-12-13T05:00:16.792Z,25.83
2023-12-13T05:01:50.207Z,25.07
2023-12-13T05:03:22.602Z,45.95
2023-12-13T05:05:01.233Z,39.15
2023-12-13T05:06:33.664Z,37.25
2023-12-13T05:08:09.978Z,32.22
2023-12-13T05:09:42.273Z,31.98
2023-12-13T05:11:14.705Z,29.08
2023-12-13T05:12:47.014Z,27.67
2023-12-13T05:14:19.321Z,22.63
2023-12-13T05:15:51.678Z,29.45
2023-12-13T05:17:24.234Z,26.35
2023-12-13T05:18:56.664Z,31.88
2023-12-13T05:20:28.966Z,27.45
2023-12-13T05:22:01.151Z,31.15
2023-12-13T05:23:33.466Z,36.10
2023-12-13T05:25:06.149Z,31.73
2023-12-13T05:26:38.391Z,27.60
2023-12-13T05:28:11.228Z,32.47
2023-12-13T05:29:45.262Z,27.38
2023-12-13T05:31:35.719Z,27.90
2023-12-13T05:33:08.833Z,28.13
2023-12-13T05:34:41.131Z,37.08
2023-12-13T05:36:13.411Z,25.75
2023-12-13T05:37:45.795Z,26.38
2023-12-13T05:39:18.145Z,30.08
2023-12-13T05:40:51.178Z,30.08
2023-12-13T05:42:26.698Z,20.77
2023-12-13T05:43:59.133Z,18.38
2023-12-13T05:45:31.464Z,20.80
2023-12-13T05:47:03.858Z,16.42
2023-12-13T05:48:36.261Z,13.77
2023-12-13T05:50:09.092Z,11.90
2023-12-13T05:51:41.431Z,27.20
2023-12-13T05:53:14.114Z,23.35
2023-12-13T05:54:46.560Z,15.95
2023-12-13T05:56:18.791Z,18.50
2023-12-13T05:57:51.068Z,21.85
2023-12-13T05:59:23.486Z,20.10
2023-12-13T06:00:55.853Z,13.90
2023-12-13T06:02:28.277Z,11.73
2023-12-13T06:04:00.681Z,8.02
2023-12-13T06:05:33.182Z,8.55
2023-12-13T06:07:05.624Z,12.13
2023-12-13T06:08:37.913Z,10.20
2023-12-13T06:10:10.713Z,14.77
2023-12-13T06:11:42.986Z,20.33
2023-12-13T06:13:15.388Z,21.77
2023-12-13T06:14:47.667Z,20.05
2023-12-13T06:16:20.064Z,15.93
2023-12-13T06:17:52.395Z,17.17
2023-12-13T06:19:28.594Z,19.98
2023-12-13T06:21:00.889Z,25.77
2023-12-13T06:22:33.378Z,28.35
2023-12-13T06:24:06.014Z,33.78
2023-12-13T06:25:38.384Z,31.40
2023-12-13T06:27:10.755Z,29.30
2023-12-13T06:28:43.045Z,25.35
2023-12-13T06:30:15.551Z,17.90
2023-12-13T06:31:47.909Z,19.00
2023-12-13T06:33:20.544Z,31.85
2023-12-13T06:34:53.200Z,37.97
2023-12-13T06:36:25.620Z,30.43
2023-12-13T06:37:57.909Z,28.00
2023-12-13T06:39:32.644Z,33.50
2023-12-13T06:41:05.072Z,43.55
2023-12-13T06:42:37.428Z,37.05
2023-12-13T06:44:09.747Z,35.63
2023-12-13T06:45:42.034Z,33.67
2023-12-13T06:47:14.333Z,28.80
2023-12-13T06:48:50.698Z,28.20
2023-12-13T06:50:23.038Z,32.08
2023-12-13T06:51:55.344Z,25.80
2023-12-13T06:53:28.024Z,22.55
2023-12-13T06:55:00.314Z,23.17
2023-12-13T06:56:32.583Z,18.30
2023-12-13T06:58:04.957Z,33.47
2023-12-13T06:59:37.254Z,40.53
2023-12-13T07:01:10.200Z,40.70
2023-12-13T07:02:42.488Z,26.98
2023-12-13T07:04:15.305Z,33.17
2023-12-13T07:05:49.271Z,32.63
2023-12-13T07:07:21.649Z,34.03
2023-12-13T07:08:53.886Z,28.50
2023-12-13T07:10:28.542Z,27.40
2023-12-13T07:12:01.160Z,22.48
2023-12-13T07:13:33.521Z,21.55
2023-12-13T07:15:07.950Z,23.02
2023-12-13T07:16:40.643Z,31.77
2023-12-13T07:18:13.090Z,29.98
2023-12-13T07:19:45.449Z,28.95
2023-12-13T07:21:17.723Z,41.22
2023-12-13T07:22:53.187Z,37.40
2023-12-13T07:24:25.553Z,31.58
2023-12-13T07:25:57.982Z,22.60
2023-12-13T07:27:30.532Z,23.27
2023-12-13T07:29:03.179Z,28.17
2023-12-13T07:30:35.961Z,40.80
2023-12-13T07:32:09.952Z,52.00
2023-12-13T07:33:43.499Z,42.80
2023-12-13T07:35:16.300Z,40.80
2023-12-13T07:36:50.718Z,43.47
2023-12-13T07:38:22.969Z,39.65
2023-12-13T07:39:55.192Z,62.67
2023-12-13T07:41:27.542Z,76.45
2023-12-13T07:42:59.988Z,72.25
2023-12-13T07:44:34.736Z,62.70
2023-12-13T07:46:07.693Z,50.17
2023-12-13T07:47:40.009Z,39.63
2023-12-13T07:49:12.430Z,32.90
2023-12-13T07:50:44.872Z,33.05
2023-12-13T07:52:21.954Z,30.20
2023-12-13T07:53:54.328Z,32.35
2023-12-13T07:55:26.713Z,31.50
2023-12-13T07:56:59.049Z,32.53
2023-12-13T07:58:34.838Z,39.72
2023-12-13T08:00:07.643Z,38.25
2023-12-13T08:01:39.964Z,37.13
2023-12-13T08:03:12.328Z,32.50
2023-12-13T08:04:44.735Z,33.20
2023-12-13T08:06:21.193Z,32.85
2023-12-13T08:07:53.509Z,37.67
2023-12-13T08:09:25.970Z,34.85
2023-12-13T08:10:59.165Z,34.25
2023-12-13T08:12:31.806Z,36.45
2023-12-13T08:14:04.956Z,37.35
2023-12-13T08:15:37.446Z,34.33
2023-12-13T08:17:11.680Z,33.28
2023-12-13T08:18:44.132Z,20.70
2023-12-13T08:20:16.615Z,21.63
2023-12-13T08:21:48.932Z,24.92
2023-12-13T08:23:21.349Z,27.63
2023-12-13T08:24:53.970Z,25.75
2023-12-13T08:26:29.046Z,21.90
2023-12-13T08:28:01.585Z,23.08
2023-12-13T08:29:33.906Z,21.37
2023-12-13T08:31:16.985Z,18.60
2023-12-13T08:32:53.620Z,16.73
2023-12-13T08:34:25.946Z,14.55
2023-12-13T08:35:58.374Z,11.52
2023-12-13T08:37:31.900Z,12.80
2023-12-13T08:39:05.341Z,13.52
2023-12-13T08:40:37.683Z,10.07
2023-12-13T08:42:11.013Z,10.52
2023-12-13T08:43:43.516Z,9.40
2023-12-13T08:45:16.106Z,8.47
2023-12-13T08:46:49.013Z,9.37
2023-12-13T08:48:21.493Z,9.35
2023-12-13T08:49:56.501Z,9.83
2023-12-13T08:51:28.791Z,9.70
2023-12-13T08:53:01.418Z,10.30
2023-12-13T08:54:34.807Z,8.02
2023-12-13T08:56:07.831Z,9.65
2023-12-13T08:57:40.221Z,9.68
2023-12-13T08:59:12.514Z,8.82
2023-12-13T09:00:44.980Z,9.50
2023-12-13T09:02:17.782Z,9.27
2023-12-13T09:03:50.438Z,9.48
2023-12-13T09:05:22.897Z,8.37
2023-12-13T09:06:55.304Z,10.05
2023-12-13T09:08:27.670Z,9.40
2023-12-13T09:09:59.884Z,8.57
2023-12-13T09:11:32.830Z,9.13
2023-12-13T09:13:05.736Z,11.15
2023-12-13T09:14:38.088Z,8.43
2023-12-13T11:13:51.472Z,33.97
2023-12-13T11:15:23.887Z,19.08
2023-12-13T11:36:12.368Z,10.48
2023-12-13T11:37:50.106Z,14.68
2023-12-13T11:39:22.373Z,14.23
2023-12-13T11:40:54.596Z,14.45
2023-12-13T11:42:26.874Z,15.95
2023-12-13T11:43:59.250Z,11.77
2023-12-13T11:45:31.507Z,9.48
2023-12-13T11:47:05.711Z,9.70
2023-12-13T11:48:38.562Z,9.50
2023-12-13T11:50:12.282Z,8.93
2023-12-13T11:51:44.668Z,7.80
2023-12-13T11:53:17.414Z,20.25
2023-12-13T11:54:51.126Z,17.40
2023-12-13T11:56:24.155Z,22.15
2023-12-13T11:57:59.993Z,26.35
2023-12-13T11:59:32.320Z,27.50
2023-12-13T12:01:05.294Z,32.42
2023-12-13T12:02:37.635Z,32.33
2023-12-13T12:04:10.790Z,36.50
2023-12-13T12:05:44.174Z,28.27
2023-12-13T12:07:18.453Z,40.72
2023-12-13T12:08:50.844Z,43.50
2023-12-13T12:10:23.716Z,52.63
2023-12-13T12:11:56.738Z,47.42
2023-12-13T12:13:29.024Z,49.55
2023-12-13T12:15:01.519Z,48.97
2023-12-13T12:16:33.929Z,35.83
2023-12-13T12:18:06.442Z,43.58
2023-12-13T12:19:40.091Z,31.52
2023-12-13T12:21:12.841Z,18.90
2023-12-13T12:22:45.385Z,21.25
2023-12-13T12:24:17.671Z,18.27
2023-12-13T12:25:54.827Z,10.73
2023-12-13T12:27:28.508Z,20.75
2023-12-13T12:29:00.912Z,11.50
2023-12-13T12:30:33.419Z,9.52
2023-12-13T12:32:13.208Z,10.15
2023-12-13T12:33:56.919Z,8.77
2023-12-13T12:35:29.487Z,12.80
2023-12-13T12:37:01.689Z,7.77
2023-12-13T12:38:34.015Z,12.07
2023-12-13T12:40:07.780Z,11.30
2023-12-13T12:41:40.076Z,14.82
2023-12-13T12:43:14.787Z,9.73
2023-12-13T12:44:49.641Z,13.30
2023-12-13T12:46:22.815Z,15.73
2023-12-13T12:47:55.282Z,11.55
2023-12-13T16:05:25.369Z,30.38
2023-12-13T16:07:00.318Z,25.92
2023-12-13T16:08:32.773Z,27.08
2023-12-13T16:10:05.287Z,26.30
2023-12-13T16:11:37.523Z,28.92
2023-12-13T16:13:10.004Z,24.63
2023-12-13T16:14:42.343Z,25.30
2023-12-13T16:16:14.780Z,24.80
2023-12-13T16:17:47.163Z,28.35
2023-12-13T16:19:19.653Z,24.92
2023-12-13T16:20:51.866Z,24.40
2023-12-13T16:22:24.162Z,25.10
2023-12-13T16:23:56.441Z,25.08
2023-12-13T16:25:28.748Z,24.33
2023-12-13T16:27:01.241Z,23.60
2023-12-13T16:28:33.677Z,23.45
2023-12-13T16:30:07.262Z,23.48
2023-12-13T16:31:39.645Z,21.23
2023-12-13T16:33:13.982Z,24.60
2023-12-13T16:34:46.397Z,23.42
2023-12-13T16:36:22.392Z,26.85
2023-12-13T16:37:54.638Z,25.17
2023-12-13T16:39:26.913Z,25.40
2023-12-13T16:40:59.345Z,23.92
2023-12-13T16:42:31.862Z,26.63
2023-12-13T16:44:04.556Z,25.13
2023-12-13T16:45:38.317Z,26.67
2023-12-13T16:47:14.438Z,21.80
2023-12-13T16:48:49.399Z,25.00
2023-12-13T16:50:22.333Z,24.40
2023-12-13T16:51:55.244Z,22.65
2023-12-13T16:53:27.546Z,23.50
2023-12-13T16:55:00.219Z,22.35
2023-12-13T16:56:32.536Z,22.85
2023-12-13T16:58:05.630Z,24.40
2023-12-13T16:59:38.035Z,21.95
2023-12-13T17:01:10.462Z,22.08
2023-12-13T17:02:45.417Z,22.35
2023-12-13T17:04:18.285Z,23.67
2023-12-13T17:05:50.591Z,23.20
2023-12-13T17:07:27.125Z,22.83
2023-12-13T17:09:01.336Z,24.90
2023-12-13T17:10:35.238Z,22.98
2023-12-13T17:12:07.698Z,26.95
2023-12-13T17:13:42.569Z,23.42
2023-12-13T17:15:15.215Z,25.92
2023-12-13T17:16:48.060Z,24.50
2023-12-13T17:18:21.019Z,23.38
2023-12-13T17:19:54.229Z,24.75
2023-12-13T17:21:26.743Z,25.98
2023-12-13T17:22:59.064Z,25.23
2023-12-13T17:24:33.110Z,23.83
2023-12-13T17:26:05.626Z,25.20
2023-12-13T17:27:39.947Z,23.37
2023-12-13T17:29:19.775Z,23.77
2023-12-13T17:30:54.979Z,24.90
2023-12-13T17:32:28.931Z,26.08
2023-12-13T17:34:04.562Z,24.05
2023-12-13T17:35:36.858Z,19.50
2023-12-13T17:37:10.469Z,22.63
2023-12-13T17:38:42.778Z,24.55
2023-12-13T17:40:15.280Z,24.50
2023-12-13T17:41:47.530Z,24.33
2023-12-13T17:43:19.889Z,26.88
2023-12-13T17:44:52.282Z,24.55
2023-12-13T17:46:25.351Z,26.33
2023-12-13T17:47:57.616Z,25.20
2023-12-13T17:49:35.947Z,24.85
2023-12-13T17:51:09.138Z,26.10
2023-12-13T17:52:41.437Z,25.33
2023-12-13T17:54:13.790Z,26.15
2023-12-13T17:55:46.199Z,26.52
2023-12-13T17:57:18.442Z,21.98
2023-12-13T17:58:50.827Z,25.92
2023-12-13T18:00:23.528Z,28.40
2023-12-13T18:01:55.904Z,33.47
2023-12-13T18:03:28.119Z,22.85
2023-12-13T18:05:04.487Z,23.48
2023-12-13T18:06:36.897Z,25.00
2023-12-13T18:08:09.572Z,24.10
2023-12-13T18:09:43.883Z,23.48
2023-12-13T18:11:16.200Z,25.70
2023-12-13T18:12:48.984Z,23.42
2023-12-13T18:14:21.381Z,25.73
2023-12-13T18:15:53.798Z,28.10
2023-12-13T18:17:26.118Z,28.42
2023-12-13T18:18:59.567Z,34.60
2023-12-13T18:22:05.345Z,44.92
2023-12-13T18:23:37.661Z,30.00
2023-12-13T18:25:10.365Z,27.15
2023-12-13T18:26:42.752Z,24.35
2023-12-13T18:28:15.097Z,28.38
2023-12-13T18:29:47.315Z,24.67
2023-12-13T18:31:19.723Z,32.78
2023-12-13T18:32:52.063Z,28.67
2023-12-13T18:34:24.481Z,23.92
2023-12-13T18:35:59.032Z,26.67
2023-12-13T18:37:31.708Z,23.45
2023-12-13T18:39:04.622Z,21.90
2023-12-13T18:40:37.120Z,25.77
2023-12-13T18:42:09.535Z,27.15
2023-12-13T18:43:41.970Z,24.38
2023-12-13T18:45:17.240Z,26.58
2023-12-13T18:46:49.932Z,24.55
2023-12-13T18:48:25.363Z,22.90
2023-12-13T18:49:57.858Z,27.35
2023-12-13T18:51:30.308Z,23.52
2023-12-13T18:53:02.736Z,51.67
2023-12-13T18:54:35.262Z,28.40
2023-12-13T18:56:08.169Z,23.25
2023-12-13T18:57:41.319Z,25.33
2023-12-13T18:59:13.827Z,23.67
2023-12-13T19:00:47.048Z,25.65
2023-12-13T19:02:19.789Z,28.45
2023-12-13T19:03:52.471Z,29.42
2023-12-13T19:05:24.924Z,24.27
2023-12-13T19:06:57.337Z,42.40
2023-12-13T19:08:29.648Z,43.55
2023-12-13T19:10:02.808Z,41.85
2023-12-13T19:11:35.438Z,23.85
2023-12-13T19:13:07.741Z,22.50
2023-12-13T19:14:40.027Z,26.45
2023-12-13T19:16:12.288Z,30.58
2023-12-13T19:17:44.702Z,36.65
2023-12-13T19:19:23.159Z,35.55
2023-12-13T19:20:57.413Z,32.08
2023-12-13T19:22:29.767Z,27.75
2023-12-13T19:24:02.140Z,32.13
2023-12-13T19:25:37.713Z,32.05
2023-12-13T19:27:09.933Z,31.45
2023-12-13T19:28:42.771Z,32.47
2023-12-13T19:30:15.391Z,32.53
2023-12-13T19:31:49.068Z,28.30
2023-12-13T19:33:21.452Z,30.35
2023-12-13T19:34:54.422Z,36.60
2023-12-13T19:36:27.493Z,40.00
2023-12-13T19:37:59.815Z,31.98
2023-12-13T19:39:32.146Z,31.88
2023-12-13T19:41:04.714Z,30.63
2023-12-13T19:42:37.127Z,31.07
2023-12-13T19:44:09.562Z,32.55
2023-12-13T19:45:42.049Z,29.30
2023-12-13T19:47:14.425Z,33.35
2023-12-13T19:48:47.119Z,25.83
2023-12-13T19:50:19.576Z,45.10
2023-12-13T19:51:52.051Z,40.60
2023-12-13T19:53:24.428Z,39.40
2023-12-13T19:54:56.685Z,49.45
2023-12-13T19:56:28.949Z,39.85
2023-12-13T19:58:01.206Z,35.22
2023-12-13T19:59:33.531Z,29.92
2023-12-13T20:01:06.019Z,32.70
2023-12-13T20:02:38.389Z,33.90
2023-12-13T20:04:10.907Z,33.28
2023-12-13T20:05:43.654Z,35.73
2023-12-13T20:07:16.121Z,41.10
2023-12-13T20:08:49.579Z,56.92
2023-12-13T20:10:21.896Z,51.42
2023-12-13T20:11:55.122Z,45.33
2023-12-13T20:13:27.417Z,47.78
2023-12-13T20:14:59.789Z,41.75
2023-12-13T20:16:32.307Z,40.75
2023-12-13T20:45:34.208Z,31.02
2023-12-13T20:47:06.753Z,25.80
2023-12-13T20:48:39.182Z,26.92
2023-12-13T20:50:13.025Z,29.38
2023-12-13T20:51:45.550Z,28.60
2023-12-13T20:53:17.791Z,29.02
2023-12-13T20:54:50.145Z,25.92
2023-12-13T20:56:29.037Z,27.35
2023-12-13T20:58:01.344Z,32.97
2023-12-13T20:59:35.228Z,32.85
2023-12-13T21:01:07.568Z,22.85
2023-12-13T21:02:40.942Z,44.35
2023-12-13T21:04:13.280Z,33.90
2023-12-13T21:05:47.394Z,48.60
2023-12-13T21:07:19.954Z,24.50
2023-12-13T21:08:52.982Z,48.28
2023-12-13T21:10:25.419Z,61.08
2023-12-13T21:12:00.686Z,50.78
2023-12-13T21:13:34.873Z,37.53
2023-12-13T21:15:08.309Z,39.55
2023-12-13T21:16:41.789Z,50.40
2023-12-13T21:18:14.246Z,44.53
2023-12-13T21:19:46.753Z,39.38
2023-12-13T21:21:19.202Z,30.70
2023-12-13T21:22:51.702Z,26.58
2023-12-13T21:24:23.996Z,27.38
2023-12-13T21:25:58.035Z,28.13
2023-12-13T21:27:30.515Z,30.40
2023-12-13T21:29:03.292Z,24.17
2023-12-13T21:30:35.685Z,24.92
2023-12-13T21:32:08.388Z,26.25
2023-12-13T21:33:40.873Z,27.50
2023-12-13T21:35:13.347Z,25.60
2023-12-13T21:36:46.484Z,27.13
2023-12-13T21:38:18.811Z,23.77
2023-12-13T21:39:51.120Z,26.92
2023-12-13T21:41:25.751Z,28.45
2023-12-13T21:42:58.138Z,27.10
2023-12-13T21:44:30.741Z,25.75
2023-12-13T21:46:02.916Z,29.42
2023-12-13T21:47:36.769Z,32.78
2023-12-13T21:49:09.074Z,29.80
2023-12-13T21:50:41.494Z,31.00
2023-12-13T21:52:13.679Z,25.52
2023-12-13T21:53:49.123Z,27.35
2023-12-13T21:55:22.360Z,28.80
2023-12-13T21:56:54.682Z,27.23
2023-12-13T21:58:26.973Z,29.60
2023-12-13T21:59:59.286Z,29.42
2023-12-13T22:01:31.484Z,31.27
2023-12-13T22:03:03.912Z,27.98
2023-12-13T22:04:38.180Z,29.48
2023-12-13T22:06:10.775Z,27.40
2023-12-13T22:07:42.983Z,28.55
2023-12-13T22:09:18.059Z,26.30
2023-12-13T22:10:51.985Z,26.55
2023-12-13T22:12:24.581Z,26.48
2023-12-13T22:13:56.940Z,26.88
2023-12-13T22:15:29.255Z,37.65
2023-12-13T22:17:01.624Z,34.67
2023-12-13T22:18:41.096Z,38.00
2023-12-13T22:20:19.407Z,37.22
2023-12-13T22:21:51.695Z,40.35
2023-12-13T22:23:24.292Z,36.70
2023-12-13T22:24:56.594Z,43.47
2023-12-13T22:26:28.847Z,48.63
2023-12-13T22:28:01.131Z,41.90
2023-12-13T22:29:33.813Z,45.88
2023-12-13T22:31:06.412Z,49.42
2023-12-13T22:32:38.874Z,48.35
2023-12-13T22:34:13.571Z,40.88
2023-12-13T22:35:45.894Z,38.40
2023-12-13T22:37:18.273Z,43.40
2023-12-13T22:38:50.531Z,40.75
2023-12-13T22:40:22.730Z,40.45
2023-12-13T22:41:55.034Z,33.58
2023-12-13T22:43:28.184Z,38.72
2023-12-13T22:45:00.404Z,36.53
2023-12-13T22:46:32.697Z,33.40
2023-12-13T22:48:06.984Z,34.85
2023-12-13T22:49:40.443Z,33.08
2023-12-13T22:52:45.842Z,28.75
2023-12-13T22:54:19.062Z,28.45
2023-12-13T22:55:51.693Z,30.27
2023-12-13T22:57:23.930Z,30.80
2023-12-13T22:58:56.727Z,30.02
2023-12-13T23:00:29.718Z,31.85
2023-12-13T23:02:03.571Z,29.63
2023-12-13T23:03:40.056Z,28.35
2023-12-13T23:05:12.357Z,34.03
2023-12-13T23:06:44.926Z,34.50
2023-12-13T23:08:17.626Z,33.67
2023-12-13T23:09:49.891Z,35.90
2023-12-13T23:11:22.186Z,36.03
2023-12-13T23:12:55.222Z,31.20
2023-12-13T23:14:27.522Z,29.52
2023-12-13T23:15:59.792Z,34.70
2023-12-13T23:17:32.182Z,33.33
2023-12-13T23:19:04.708Z,39.47
2023-12-13T23:20:37.171Z,32.47
2023-12-13T23:22:09.488Z,38.42
2023-12-13T23:23:41.685Z,42.13
2023-12-13T23:25:13.921Z,53.53
2023-12-13T23:26:46.238Z,56.25
2023-12-13T23:28:18.535Z,37.17
2023-12-13T23:29:50.769Z,31.95
2023-12-13T23:31:29.544Z,40.17
2023-12-13T23:33:06.508Z,31.85
2023-12-13T23:34:38.897Z,29.45
2023-12-13T23:36:11.557Z,49.83
2023-12-13T23:37:43.977Z,40.88
2023-12-13T23:39:16.264Z,32.13
2023-12-13T23:40:48.513Z,29.48
2023-12-13T23:42:20.899Z,39.92
2023-12-13T23:43:53.172Z,45.03
2023-12-13T23:45:25.441Z,39.97
2023-12-13T23:46:59.236Z,39.03
2023-12-13T23:48:31.568Z,31.10
2023-12-13T23:50:04.080Z,33.10
2023-12-13T23:51:36.525Z,34.17
2023-12-13T23:53:08.723Z,34.42
2023-12-13T23:54:42.109Z,36.22
2023-12-13T23:56:21.648Z,30.10
2023-12-13T23:57:53.903Z,34.05
2023-12-13T23:59:26.137Z,37.88
